sensor_id;sensor_type;location;lat;lon;timestamp;P1;durP1;ratioP1;P2;durP2;ratioP2
65049;SDS011;52090;51.224;-2.328;2023-02-15T00:00:30;39.72;;;24.15;;
65049;SDS011;52090;51.224;-2.328;2023-02-15T00:04:13;43.78;;;27.42;;
65049;SDS011;52090;51.224;-2.328;2023-02-15T00:07:56;41.05;;;26.48;;
65049;SDS011;52090;51.224;-2.328;2023-02-15T00:11:41;44.35;;;25.05;;
65049;SDS011;52090;51.224;-2.328;2023-02-15T00:15:31;43.38;;;25.15;;
65049;SDS011;52090;51.224;-2.328;2023-02-15T00:19:13;42.15;;;26.38;;
65049;SDS011;52090;51.224;-2.328;2023-02-15T00:22:57;35.92;;;23.35;;
65049;SDS011;52090;51.224;-2.328;2023-02-15T00:26:40;41.40;;;26.93;;
65049;SDS011;52090;51.224;-2.328;2023-02-15T00:30:22;42.70;;;26.30;;
65049;SDS011;52090;51.224;-2.328;2023-02-15T00:34:07;42.92;;;27.42;;
65049;SDS011;52090;51.224;-2.328;2023-02-15T00:37:53;39.88;;;26.70;;
65049;SDS011;52090;51.224;-2.328;2023-02-15T00:41:35;40.58;;;24.58;;
65049;SDS011;52090;51.224;-2.328;2023-02-15T00:45:17;41.70;;;25.48;;
65049;SDS011;52090;51.224;-2.328;2023-02-15T00:49:01;39.08;;;24.90;;
65049;SDS011;52090;51.224;-2.328;2023-02-15T00:52:44;41.95;;;25.35;;
65049;SDS011;52090;51.224;-2.328;2023-02-15T00:56:26;43.65;;;25.52;;
65049;SDS011;52090;51.224;-2.328;2023-02-15T01:00:09;41.15;;;25.60;;
65049;SDS011;52090;51.224;-2.328;2023-02-15T01:03:51;44.63;;;27.20;;
65049;SDS011;52090;51.224;-2.328;2023-02-15T01:07:33;40.75;;;25.38;;
65049;SDS011;52090;51.224;-2.328;2023-02-15T01:11:20;45.55;;;26.65;;
65049;SDS011;52090;51.224;-2.328;2023-02-15T01:15:04;38.67;;;24.38;;
65049;SDS011;52090;51.224;-2.328;2023-02-15T01:18:46;49.63;;;27.15;;
65049;SDS011;52090;51.224;-2.328;2023-02-15T01:22:28;46.05;;;28.75;;
65049;SDS011;52090;51.224;-2.328;2023-02-15T01:26:10;42.30;;;28.58;;
65049;SDS011;52090;51.224;-2.328;2023-02-15T01:29:52;46.45;;;29.67;;
65049;SDS011;52090;51.224;-2.328;2023-02-15T01:33:34;42.20;;;25.35;;
65049;SDS011;52090;51.224;-2.328;2023-02-15T01:37:17;36.65;;;23.55;;
65049;SDS011;52090;51.224;-2.328;2023-02-15T01:40:59;37.35;;;25.63;;
65049;SDS011;52090;51.224;-2.328;2023-02-15T01:45:03;40.50;;;23.90;;
65049;SDS011;52090;51.224;-2.328;2023-02-15T01:48:54;36.58;;;24.50;;
65049;SDS011;52090;51.224;-2.328;2023-02-15T01:52:42;39.38;;;24.50;;
65049;SDS011;52090;51.224;-2.328;2023-02-15T01:56:32;42.38;;;24.35;;
65049;SDS011;52090;51.224;-2.328;2023-02-15T02:00:16;41.70;;;25.40;;
65049;SDS011;52090;51.224;-2.328;2023-02-15T02:08:06;38.55;;;24.30;;
65049;SDS011;52090;51.224;-2.328;2023-02-15T02:11:50;43.83;;;26.27;;
65049;SDS011;52090;51.224;-2.328;2023-02-15T02:15:40;47.00;;;27.30;;
65049;SDS011;52090;51.224;-2.328;2023-02-15T02:39:49;48.47;;;29.63;;
65049;SDS011;52090;51.224;-2.328;2023-02-15T02:43:48;47.50;;;28.40;;
65049;SDS011;52090;51.224;-2.328;2023-02-15T02:51:21;50.22;;;29.90;;
65049;SDS011;52090;51.224;-2.328;2023-02-15T02:55:04;43.55;;;25.30;;
65049;SDS011;52090;51.224;-2.328;2023-02-15T02:59:09;40.40;;;25.52;;
65049;SDS011;52090;51.224;-2.328;2023-02-15T03:02:54;47.78;;;26.23;;
65049;SDS011;52090;51.224;-2.328;2023-02-15T03:06:47;42.83;;;27.67;;
65049;SDS011;52090;51.224;-2.328;2023-02-15T03:10:33;48.20;;;27.15;;
65049;SDS011;52090;51.224;-2.328;2023-02-15T03:14:16;44.95;;;27.13;;
65049;SDS011;52090;51.224;-2.328;2023-02-15T03:17:59;44.60;;;26.98;;
65049;SDS011;52090;51.224;-2.328;2023-02-15T03:21:45;45.90;;;27.35;;
65049;SDS011;52090;51.224;-2.328;2023-02-15T03:25:39;39.92;;;23.08;;
65049;SDS011;52090;51.224;-2.328;2023-02-15T03:29:25;40.25;;;24.83;;
65049;SDS011;52090;51.224;-2.328;2023-02-15T03:33:09;44.85;;;27.85;;
65049;SDS011;52090;51.224;-2.328;2023-02-15T03:37:03;43.30;;;27.88;;
65049;SDS011;52090;51.224;-2.328;2023-02-15T03:40:48;47.40;;;28.40;;
65049;SDS011;52090;51.224;-2.328;2023-02-15T03:44:57;48.95;;;30.23;;
65049;SDS011;52090;51.224;-2.328;2023-02-15T03:48:47;43.83;;;27.52;;
65049;SDS011;52090;51.224;-2.328;2023-02-15T03:52:34;44.97;;;27.90;;
65049;SDS011;52090;51.224;-2.328;2023-02-15T03:56:17;42.17;;;26.95;;
65049;SDS011;52090;51.224;-2.328;2023-02-15T03:59:59;47.35;;;29.70;;
65049;SDS011;52090;51.224;-2.328;2023-02-15T04:04:03;50.55;;;29.23;;
65049;SDS011;52090;51.224;-2.328;2023-02-15T04:07:51;56.15;;;32.95;;
65049;SDS011;52090;51.224;-2.328;2023-02-15T04:11:33;46.00;;;28.25;;
65049;SDS011;52090;51.224;-2.328;2023-02-15T04:15:14;42.65;;;25.33;;
65049;SDS011;52090;51.224;-2.328;2023-02-15T04:19:15;43.00;;;26.30;;
65049;SDS011;52090;51.224;-2.328;2023-02-15T04:23:15;46.78;;;27.65;;
65049;SDS011;52090;51.224;-2.328;2023-02-15T04:27:16;57.47;;;29.08;;
65049;SDS011;52090;51.224;-2.328;2023-02-15T04:30:58;50.40;;;30.33;;
65049;SDS011;52090;51.224;-2.328;2023-02-15T04:34:39;52.80;;;30.45;;
65049;SDS011;52090;51.224;-2.328;2023-02-15T04:38:21;56.20;;;33.67;;
65049;SDS011;52090;51.224;-2.328;2023-02-15T04:42:04;58.33;;;32.58;;
65049;SDS011;52090;51.224;-2.328;2023-02-15T04:45:49;50.50;;;31.38;;
65049;SDS011;52090;51.224;-2.328;2023-02-15T04:49:31;54.97;;;33.40;;
65049;SDS011;52090;51.224;-2.328;2023-02-15T04:53:13;50.55;;;30.35;;
65049;SDS011;52090;51.224;-2.328;2023-02-15T04:56:57;54.00;;;31.77;;
65049;SDS011;52090;51.224;-2.328;2023-02-15T05:00:39;53.10;;;33.15;;
65049;SDS011;52090;51.224;-2.328;2023-02-15T05:04:21;54.35;;;30.00;;
65049;SDS011;52090;51.224;-2.328;2023-02-15T05:08:03;50.95;;;31.52;;
65049;SDS011;52090;51.224;-2.328;2023-02-15T05:11:45;51.20;;;30.83;;
65049;SDS011;52090;51.224;-2.328;2023-02-15T05:15:27;47.50;;;28.85;;
65049;SDS011;52090;51.224;-2.328;2023-02-15T05:19:08;39.47;;;26.00;;
65049;SDS011;52090;51.224;-2.328;2023-02-15T05:22:53;47.80;;;28.67;;
65049;SDS011;52090;51.224;-2.328;2023-02-15T05:26:35;45.92;;;29.77;;
65049;SDS011;52090;51.224;-2.328;2023-02-15T05:30:35;49.33;;;30.73;;
65049;SDS011;52090;51.224;-2.328;2023-02-15T05:34:17;50.15;;;29.05;;
65049;SDS011;52090;51.224;-2.328;2023-02-15T05:37:59;50.20;;;31.17;;
65049;SDS011;52090;51.224;-2.328;2023-02-15T05:41:41;52.53;;;30.15;;
65049;SDS011;52090;51.224;-2.328;2023-02-15T05:45:23;45.42;;;28.85;;
65049;SDS011;52090;51.224;-2.328;2023-02-15T05:49:05;55.97;;;33.35;;
65049;SDS011;52090;51.224;-2.328;2023-02-15T05:52:47;54.05;;;33.13;;
65049;SDS011;52090;51.224;-2.328;2023-02-15T05:56:32;49.75;;;28.63;;
65049;SDS011;52090;51.224;-2.328;2023-02-15T06:00:14;53.90;;;30.05;;
65049;SDS011;52090;51.224;-2.328;2023-02-15T06:03:56;54.13;;;31.38;;
65049;SDS011;52090;51.224;-2.328;2023-02-15T06:07:38;47.03;;;30.00;;
65049;SDS011;52090;51.224;-2.328;2023-02-15T06:11:20;54.88;;;30.80;;
65049;SDS011;52090;51.224;-2.328;2023-02-15T06:15:01;52.55;;;31.58;;
65049;SDS011;52090;51.224;-2.328;2023-02-15T06:18:44;53.95;;;31.30;;
65049;SDS011;52090;51.224;-2.328;2023-02-15T06:22:25;53.22;;;32.13;;
65049;SDS011;52090;51.224;-2.328;2023-02-15T06:26:07;49.42;;;30.83;;
65049;SDS011;52090;51.224;-2.328;2023-02-15T06:29:49;54.65;;;31.42;;
65049;SDS011;52090;51.224;-2.328;2023-02-15T06:33:31;49.30;;;29.55;;
65049;SDS011;52090;51.224;-2.328;2023-02-15T06:37:14;52.88;;;29.58;;
65049;SDS011;52090;51.224;-2.328;2023-02-15T06:40:56;52.97;;;31.05;;
65049;SDS011;52090;51.224;-2.328;2023-02-15T06:44:38;53.00;;;30.25;;
65049;SDS011;52090;51.224;-2.328;2023-02-15T06:48:20;52.25;;;31.90;;
65049;SDS011;52090;51.224;-2.328;2023-02-15T06:52:02;50.78;;;31.52;;
65049;SDS011;52090;51.224;-2.328;2023-02-15T06:55:45;55.17;;;31.08;;
65049;SDS011;52090;51.224;-2.328;2023-02-15T06:59:26;49.45;;;28.70;;
65049;SDS011;52090;51.224;-2.328;2023-02-15T07:03:08;47.58;;;29.23;;
65049;SDS011;52090;51.224;-2.328;2023-02-15T07:06:50;46.78;;;29.42;;
65049;SDS011;52090;51.224;-2.328;2023-02-15T07:10:34;47.92;;;27.50;;
65049;SDS011;52090;51.224;-2.328;2023-02-15T07:14:16;52.80;;;29.40;;
65049;SDS011;52090;51.224;-2.328;2023-02-15T07:17:57;48.58;;;28.02;;
65049;SDS011;52090;51.224;-2.328;2023-02-15T07:21:40;50.87;;;28.17;;
65049;SDS011;52090;51.224;-2.328;2023-02-15T07:25:22;45.20;;;26.60;;
65049;SDS011;52090;51.224;-2.328;2023-02-15T07:29:03;43.72;;;27.33;;
65049;SDS011;52090;51.224;-2.328;2023-02-15T07:32:45;45.08;;;27.45;;
65049;SDS011;52090;51.224;-2.328;2023-02-15T07:36:46;48.90;;;26.20;;
65049;SDS011;52090;51.224;-2.328;2023-02-15T07:40:28;47.03;;;27.38;;
65049;SDS011;52090;51.224;-2.328;2023-02-15T07:44:13;45.47;;;26.77;;
65049;SDS011;52090;51.224;-2.328;2023-02-15T07:47:56;45.28;;;26.65;;
65049;SDS011;52090;51.224;-2.328;2023-02-15T07:51:37;45.42;;;26.27;;
65049;SDS011;52090;51.224;-2.328;2023-02-15T07:55:19;47.00;;;28.25;;
65049;SDS011;52090;51.224;-2.328;2023-02-15T07:59:01;43.42;;;27.52;;
65049;SDS011;52090;51.224;-2.328;2023-02-15T08:02:48;48.25;;;27.60;;
65049;SDS011;52090;51.224;-2.328;2023-02-15T08:06:54;43.38;;;26.75;;
65049;SDS011;52090;51.224;-2.328;2023-02-15T08:10:36;44.25;;;28.13;;
65049;SDS011;52090;51.224;-2.328;2023-02-15T08:14:47;49.75;;;28.55;;
65049;SDS011;52090;51.224;-2.328;2023-02-15T08:18:29;49.95;;;29.77;;
65049;SDS011;52090;51.224;-2.328;2023-02-15T08:22:11;50.22;;;27.20;;
65049;SDS011;52090;51.224;-2.328;2023-02-15T08:25:55;44.63;;;27.20;;
65049;SDS011;52090;51.224;-2.328;2023-02-15T08:29:41;43.17;;;25.80;;
65049;SDS011;52090;51.224;-2.328;2023-02-15T08:33:23;49.38;;;29.13;;
65049;SDS011;52090;51.224;-2.328;2023-02-15T08:37:05;48.60;;;29.33;;
65049;SDS011;52090;51.224;-2.328;2023-02-15T08:40:47;52.58;;;30.15;;
65049;SDS011;52090;51.224;-2.328;2023-02-15T08:44:29;45.03;;;28.45;;
65049;SDS011;52090;51.224;-2.328;2023-02-15T08:48:10;45.40;;;28.08;;
65049;SDS011;52090;51.224;-2.328;2023-02-15T08:51:52;43.65;;;26.73;;
65049;SDS011;52090;51.224;-2.328;2023-02-15T08:55:34;48.45;;;28.92;;
65049;SDS011;52090;51.224;-2.328;2023-02-15T08:59:20;58.22;;;29.80;;
65049;SDS011;52090;51.224;-2.328;2023-02-15T09:03:03;49.33;;;29.00;;
65049;SDS011;52090;51.224;-2.328;2023-02-15T09:06:45;48.90;;;27.95;;
65049;SDS011;52090;51.224;-2.328;2023-02-15T09:10:29;49.20;;;26.77;;
65049;SDS011;52090;51.224;-2.328;2023-02-15T09:14:12;43.28;;;25.35;;
65049;SDS011;52090;51.224;-2.328;2023-02-15T09:17:55;41.53;;;23.30;;
65049;SDS011;52090;51.224;-2.328;2023-02-15T09:21:37;40.80;;;24.35;;
65049;SDS011;52090;51.224;-2.328;2023-02-15T09:25:19;34.55;;;22.38;;
65049;SDS011;52090;51.224;-2.328;2023-02-15T09:29:01;40.38;;;23.08;;
65049;SDS011;52090;51.224;-2.328;2023-02-15T09:32:44;31.50;;;20.27;;
65049;SDS011;52090;51.224;-2.328;2023-02-15T09:36:34;33.45;;;19.85;;
65049;SDS011;52090;51.224;-2.328;2023-02-15T09:40:17;30.95;;;18.50;;
65049;SDS011;52090;51.224;-2.328;2023-02-15T09:44:04;31.20;;;19.50;;
65049;SDS011;52090;51.224;-2.328;2023-02-15T09:48:03;33.58;;;17.38;;
65049;SDS011;52090;51.224;-2.328;2023-02-15T09:52:08;29.35;;;17.25;;
65049;SDS011;52090;51.224;-2.328;2023-02-15T10:04:27;27.63;;;16.30;;
65049;SDS011;52090;51.224;-2.328;2023-02-15T10:12:25;28.30;;;16.13;;
65049;SDS011;52090;51.224;-2.328;2023-02-15T10:16:48;28.65;;;16.30;;
65049;SDS011;52090;51.224;-2.328;2023-02-15T10:53:23;21.98;;;13.98;;
65049;SDS011;52090;51.224;-2.328;2023-02-15T11:05:20;24.80;;;13.82;;
65049;SDS011;52090;51.224;-2.328;2023-02-15T11:09:12;26.80;;;13.27;;
65049;SDS011;52090;51.224;-2.328;2023-02-15T11:13:02;25.10;;;14.27;;
65049;SDS011;52090;51.224;-2.328;2023-02-15T11:16:50;22.92;;;13.57;;
65049;SDS011;52090;51.224;-2.328;2023-02-15T11:20:49;17.88;;;12.63;;
65049;SDS011;52090;51.224;-2.328;2023-02-15T11:24:42;27.05;;;14.82;;
65049;SDS011;52090;51.224;-2.328;2023-02-15T11:28:34;21.85;;;13.07;;
65049;SDS011;52090;51.224;-2.328;2023-02-15T11:32:44;28.23;;;13.40;;
65049;SDS011;52090;51.224;-2.328;2023-02-15T11:36:31;22.40;;;13.50;;
65049;SDS011;52090;51.224;-2.328;2023-02-15T11:44:14;19.00;;;12.35;;
65049;SDS011;52090;51.224;-2.328;2023-02-15T11:48:04;19.38;;;11.55;;
65049;SDS011;52090;51.224;-2.328;2023-02-15T11:51:51;19.05;;;12.15;;
65049;SDS011;52090;51.224;-2.328;2023-02-15T11:55:34;15.10;;;10.50;;
65049;SDS011;52090;51.224;-2.328;2023-02-15T11:59:18;21.85;;;10.90;;
65049;SDS011;52090;51.224;-2.328;2023-02-15T12:03:53;19.00;;;11.65;;
65049;SDS011;52090;51.224;-2.328;2023-02-15T12:07:17;23.83;;;12.02;;
65049;SDS011;52090;51.224;-2.328;2023-02-15T12:11:07;17.70;;;10.93;;
65049;SDS011;52090;51.224;-2.328;2023-02-15T12:14:59;20.83;;;11.63;;
65049;SDS011;52090;51.224;-2.328;2023-02-15T12:18:49;19.92;;;12.68;;
65049;SDS011;52090;51.224;-2.328;2023-02-15T12:22:34;19.33;;;11.50;;
65049;SDS011;52090;51.224;-2.328;2023-02-15T12:26:28;19.77;;;11.45;;
65049;SDS011;52090;51.224;-2.328;2023-02-15T12:30:20;18.50;;;11.23;;
65049;SDS011;52090;51.224;-2.328;2023-02-15T12:34:21;21.67;;;11.02;;
65049;SDS011;52090;51.224;-2.328;2023-02-15T12:45:36;17.88;;;10.85;;
65049;SDS011;52090;51.224;-2.328;2023-02-15T12:49:19;21.38;;;11.50;;
65049;SDS011;52090;51.224;-2.328;2023-02-15T12:53:15;20.13;;;10.80;;
65049;SDS011;52090;51.224;-2.328;2023-02-15T12:57:12;16.42;;;11.30;;
65049;SDS011;52090;51.224;-2.328;2023-02-15T13:05:18;17.63;;;10.65;;
65049;SDS011;52090;51.224;-2.328;2023-02-15T13:09:18;21.42;;;9.68;;
65049;SDS011;52090;51.224;-2.328;2023-02-15T13:13:26;16.55;;;10.35;;
65049;SDS011;52090;51.224;-2.328;2023-02-15T13:17:08;17.02;;;10.82;;
65049;SDS011;52090;51.224;-2.328;2023-02-15T13:20:52;16.63;;;10.50;;
65049;SDS011;52090;51.224;-2.328;2023-02-15T13:28:20;22.70;;;10.27;;
65049;SDS011;52090;51.224;-2.328;2023-02-15T13:32:29;15.35;;;9.43;;
65049;SDS011;52090;51.224;-2.328;2023-02-15T13:36:17;17.17;;;9.93;;
65049;SDS011;52090;51.224;-2.328;2023-02-15T13:40:13;16.30;;;9.15;;
65049;SDS011;52090;51.224;-2.328;2023-02-15T13:52:16;14.45;;;9.05;;
65049;SDS011;52090;51.224;-2.328;2023-02-15T14:08:35;13.25;;;7.78;;
65049;SDS011;52090;51.224;-2.328;2023-02-15T14:16:20;14.70;;;8.52;;
65049;SDS011;52090;51.224;-2.328;2023-02-15T14:28:12;13.25;;;8.45;;
65049;SDS011;52090;51.224;-2.328;2023-02-15T14:32:00;14.40;;;9.02;;
65049;SDS011;52090;51.224;-2.328;2023-02-15T14:35:49;14.55;;;8.35;;
65049;SDS011;52090;51.224;-2.328;2023-02-15T14:39:35;15.07;;;8.27;;
65049;SDS011;52090;51.224;-2.328;2023-02-15T14:44:08;16.17;;;8.45;;
65049;SDS011;52090;51.224;-2.328;2023-02-15T14:55:40;20.48;;;8.52;;
65049;SDS011;52090;51.224;-2.328;2023-02-15T14:59:22;15.77;;;8.90;;
65049;SDS011;52090;51.224;-2.328;2023-02-15T15:03:12;14.77;;;8.32;;
65049;SDS011;52090;51.224;-2.328;2023-02-15T15:10:50;20.10;;;8.45;;
65049;SDS011;52090;51.224;-2.328;2023-02-15T15:22:25;16.08;;;10.02;;
65049;SDS011;52090;51.224;-2.328;2023-02-15T15:26:26;15.07;;;8.68;;
65049;SDS011;52090;51.224;-2.328;2023-02-15T15:37:51;22.00;;;10.85;;
65049;SDS011;52090;51.224;-2.328;2023-02-15T15:41:42;19.25;;;10.27;;
65049;SDS011;52090;51.224;-2.328;2023-02-15T15:45:48;16.88;;;9.70;;
65049;SDS011;52090;51.224;-2.328;2023-02-15T15:49:43;18.30;;;10.98;;
65049;SDS011;52090;51.224;-2.328;2023-02-15T15:53:26;18.23;;;10.38;;
65049;SDS011;52090;51.224;-2.328;2023-02-15T15:57:19;26.38;;;11.45;;
65049;SDS011;52090;51.224;-2.328;2023-02-15T16:01:11;21.08;;;10.10;;
65049;SDS011;52090;51.224;-2.328;2023-02-15T16:04:57;18.13;;;8.93;;
65049;SDS011;52090;51.224;-2.328;2023-02-15T16:08:50;17.85;;;9.35;;
65049;SDS011;52090;51.224;-2.328;2023-02-15T16:12:33;9.77;;;5.18;;
65049;SDS011;52090;51.224;-2.328;2023-02-15T16:16:27;5.85;;;3.65;;
65049;SDS011;52090;51.224;-2.328;2023-02-15T16:20:15;4.38;;;2.55;;
65049;SDS011;52090;51.224;-2.328;2023-02-15T16:27:52;3.88;;;2.20;;
65049;SDS011;52090;51.224;-2.328;2023-02-15T16:31:34;5.77;;;3.37;;
65049;SDS011;52090;51.224;-2.328;2023-02-15T16:35:17;6.13;;;4.10;;
65049;SDS011;52090;51.224;-2.328;2023-02-15T16:39:07;3.55;;;2.15;;
65049;SDS011;52090;51.224;-2.328;2023-02-15T16:42:52;2.80;;;1.83;;
65049;SDS011;52090;51.224;-2.328;2023-02-15T16:46:42;3.47;;;2.22;;
65049;SDS011;52090;51.224;-2.328;2023-02-15T16:50:30;6.05;;;2.40;;
65049;SDS011;52090;51.224;-2.328;2023-02-15T16:54:17;4.57;;;2.60;;
65049;SDS011;52090;51.224;-2.328;2023-02-15T16:58:02;4.18;;;2.95;;
65049;SDS011;52090;51.224;-2.328;2023-02-15T17:01:46;3.17;;;2.15;;
65049;SDS011;52090;51.224;-2.328;2023-02-15T17:05:31;3.15;;;2.35;;
65049;SDS011;52090;51.224;-2.328;2023-02-15T17:09:21;5.13;;;3.20;;
65049;SDS011;52090;51.224;-2.328;2023-02-15T17:13:10;10.23;;;6.78;;
65049;SDS011;52090;51.224;-2.328;2023-02-15T17:17:06;6.90;;;3.70;;
65049;SDS011;52090;51.224;-2.328;2023-02-15T17:20:54;6.82;;;3.88;;
65049;SDS011;52090;51.224;-2.328;2023-02-15T17:24:41;5.72;;;2.75;;
65049;SDS011;52090;51.224;-2.328;2023-02-15T17:28:25;5.05;;;3.80;;
65049;SDS011;52090;51.224;-2.328;2023-02-15T17:32:15;4.72;;;3.38;;
65049;SDS011;52090;51.224;-2.328;2023-02-15T17:36:04;9.60;;;6.25;;
65049;SDS011;52090;51.224;-2.328;2023-02-15T17:40:19;8.25;;;5.93;;
65049;SDS011;52090;51.224;-2.328;2023-02-15T17:44:04;6.07;;;3.65;;
65049;SDS011;52090;51.224;-2.328;2023-02-15T17:47:51;6.35;;;3.30;;
65049;SDS011;52090;51.224;-2.328;2023-02-15T17:51:33;6.33;;;4.50;;
65049;SDS011;52090;51.224;-2.328;2023-02-15T17:55:17;6.05;;;4.28;;
65049;SDS011;52090;51.224;-2.328;2023-02-15T17:59:15;6.25;;;4.47;;
65049;SDS011;52090;51.224;-2.328;2023-02-15T18:02:57;7.35;;;4.75;;
65049;SDS011;52090;51.224;-2.328;2023-02-15T18:06:58;8.95;;;4.53;;
65049;SDS011;52090;51.224;-2.328;2023-02-15T18:10:59;8.25;;;4.60;;
65049;SDS011;52090;51.224;-2.328;2023-02-15T18:15:00;9.10;;;5.25;;
65049;SDS011;52090;51.224;-2.328;2023-02-15T18:18:42;9.27;;;5.38;;
65049;SDS011;52090;51.224;-2.328;2023-02-15T18:22:26;6.97;;;4.50;;
65049;SDS011;52090;51.224;-2.328;2023-02-15T18:26:11;6.00;;;3.72;;
65049;SDS011;52090;51.224;-2.328;2023-02-15T18:29:59;7.88;;;3.60;;
65049;SDS011;52090;51.224;-2.328;2023-02-15T18:33:42;4.85;;;3.75;;
65049;SDS011;52090;51.224;-2.328;2023-02-15T18:37:25;5.75;;;4.07;;
65049;SDS011;52090;51.224;-2.328;2023-02-15T18:41:18;6.07;;;4.03;;
65049;SDS011;52090;51.224;-2.328;2023-02-15T18:45:03;4.97;;;3.58;;
65049;SDS011;52090;51.224;-2.328;2023-02-15T18:48:58;7.38;;;3.65;;
65049;SDS011;52090;51.224;-2.328;2023-02-15T18:52:40;6.68;;;3.83;;
65049;SDS011;52090;51.224;-2.328;2023-02-15T18:56:25;11.40;;;4.57;;
65049;SDS011;52090;51.224;-2.328;2023-02-15T19:00:12;14.43;;;10.50;;
65049;SDS011;52090;51.224;-2.328;2023-02-15T19:03:59;14.38;;;10.23;;
65049;SDS011;52090;51.224;-2.328;2023-02-15T19:07:41;10.65;;;6.85;;
65049;SDS011;52090;51.224;-2.328;2023-02-15T19:11:26;11.65;;;6.60;;
65049;SDS011;52090;51.224;-2.328;2023-02-15T19:15:16;17.10;;;12.15;;
65049;SDS011;52090;51.224;-2.328;2023-02-15T19:19:05;14.88;;;10.93;;
65049;SDS011;52090;51.224;-2.328;2023-02-15T19:22:48;15.83;;;10.87;;
65049;SDS011;52090;51.224;-2.328;2023-02-15T19:26:31;16.23;;;10.82;;
65049;SDS011;52090;51.224;-2.328;2023-02-15T19:30:26;12.82;;;8.10;;
65049;SDS011;52090;51.224;-2.328;2023-02-15T19:34:19;11.30;;;7.63;;
65049;SDS011;52090;51.224;-2.328;2023-02-15T19:38:03;14.13;;;10.25;;
65049;SDS011;52090;51.224;-2.328;2023-02-15T19:41:48;21.63;;;13.30;;
65049;SDS011;52090;51.224;-2.328;2023-02-15T19:45:30;18.70;;;12.60;;
65049;SDS011;52090;51.224;-2.328;2023-02-15T19:49:13;25.17;;;19.13;;
65049;SDS011;52090;51.224;-2.328;2023-02-15T19:52:55;29.70;;;17.90;;
65049;SDS011;52090;51.224;-2.328;2023-02-15T19:56:37;25.63;;;16.63;;
65049;SDS011;52090;51.224;-2.328;2023-02-15T20:00:23;24.90;;;14.15;;
65049;SDS011;52090;51.224;-2.328;2023-02-15T20:04:09;16.80;;;10.57;;
65049;SDS011;52090;51.224;-2.328;2023-02-15T20:07:54;16.08;;;9.93;;
65049;SDS011;52090;51.224;-2.328;2023-02-15T20:11:37;15.20;;;8.30;;
65049;SDS011;52090;51.224;-2.328;2023-02-15T20:15:20;15.30;;;8.65;;
65049;SDS011;52090;51.224;-2.328;2023-02-15T20:19:04;11.57;;;7.13;;
65049;SDS011;52090;51.224;-2.328;2023-02-15T20:22:47;21.10;;;8.95;;
65049;SDS011;52090;51.224;-2.328;2023-02-15T20:26:31;17.80;;;10.77;;
65049;SDS011;52090;51.224;-2.328;2023-02-15T20:30:14;14.63;;;9.75;;
65049;SDS011;52090;51.224;-2.328;2023-02-15T20:34:14;17.20;;;9.82;;
65049;SDS011;52090;51.224;-2.328;2023-02-15T20:37:56;19.55;;;11.25;;
65049;SDS011;52090;51.224;-2.328;2023-02-15T20:41:40;19.83;;;11.02;;
65049;SDS011;52090;51.224;-2.328;2023-02-15T20:45:31;24.27;;;11.57;;
65049;SDS011;52090;51.224;-2.328;2023-02-15T20:49:13;72.32;;;31.55;;
65049;SDS011;52090;51.224;-2.328;2023-02-15T20:52:56;49.50;;;26.40;;
65049;SDS011;52090;51.224;-2.328;2023-02-15T20:56:40;37.60;;;23.58;;
65049;SDS011;52090;51.224;-2.328;2023-02-15T21:00:24;39.22;;;25.38;;
65049;SDS011;52090;51.224;-2.328;2023-02-15T21:04:11;37.35;;;22.95;;
65049;SDS011;52090;51.224;-2.328;2023-02-15T21:08:00;38.38;;;22.58;;
65049;SDS011;52090;51.224;-2.328;2023-02-15T21:11:42;34.67;;;20.45;;
65049;SDS011;52090;51.224;-2.328;2023-02-15T21:15:29;20.25;;;14.68;;
65049;SDS011;52090;51.224;-2.328;2023-02-15T21:19:13;13.40;;;10.02;;
65049;SDS011;52090;51.224;-2.328;2023-02-15T21:22:57;14.95;;;10.52;;
65049;SDS011;52090;51.224;-2.328;2023-02-15T21:26:43;12.55;;;8.43;;
65049;SDS011;52090;51.224;-2.328;2023-02-15T21:30:26;13.23;;;7.93;;
65049;SDS011;52090;51.224;-2.328;2023-02-15T21:34:09;14.30;;;8.90;;
65049;SDS011;52090;51.224;-2.328;2023-02-15T21:37:51;13.88;;;9.98;;
65049;SDS011;52090;51.224;-2.328;2023-02-15T21:41:33;13.83;;;8.37;;
65049;SDS011;52090;51.224;-2.328;2023-02-15T21:45:33;17.33;;;9.93;;
65049;SDS011;52090;51.224;-2.328;2023-02-15T21:49:34;13.25;;;9.32;;
65049;SDS011;52090;51.224;-2.328;2023-02-15T21:53:20;13.02;;;9.35;;
65049;SDS011;52090;51.224;-2.328;2023-02-15T21:57:13;14.52;;;8.82;;
65049;SDS011;52090;51.224;-2.328;2023-02-15T22:00:56;13.07;;;9.20;;
65049;SDS011;52090;51.224;-2.328;2023-02-15T22:04:40;12.30;;;7.97;;
65049;SDS011;52090;51.224;-2.328;2023-02-15T22:08:22;12.32;;;7.93;;
65049;SDS011;52090;51.224;-2.328;2023-02-15T22:12:05;13.10;;;8.48;;
65049;SDS011;52090;51.224;-2.328;2023-02-15T22:15:54;14.45;;;10.38;;
65049;SDS011;52090;51.224;-2.328;2023-02-15T22:19:37;20.50;;;11.88;;
65049;SDS011;52090;51.224;-2.328;2023-02-15T22:23:19;12.60;;;8.35;;
65049;SDS011;52090;51.224;-2.328;2023-02-15T22:27:04;12.20;;;8.75;;
65049;SDS011;52090;51.224;-2.328;2023-02-15T22:30:46;12.98;;;9.57;;
65049;SDS011;52090;51.224;-2.328;2023-02-15T22:34:31;14.20;;;9.57;;
65049;SDS011;52090;51.224;-2.328;2023-02-15T22:38:13;14.70;;;7.07;;
65049;SDS011;52090;51.224;-2.328;2023-02-15T22:41:55;11.23;;;7.30;;
65049;SDS011;52090;51.224;-2.328;2023-02-15T22:45:37;9.90;;;7.70;;
65049;SDS011;52090;51.224;-2.328;2023-02-15T22:49:19;10.55;;;7.38;;
65049;SDS011;52090;51.224;-2.328;2023-02-15T22:53:01;9.05;;;7.00;;
65049;SDS011;52090;51.224;-2.328;2023-02-15T23:00:37;12.18;;;9.10;;
65049;SDS011;52090;51.224;-2.328;2023-02-15T23:04:22;13.50;;;8.32;;
65049;SDS011;52090;51.224;-2.328;2023-02-15T23:08:05;11.15;;;6.85;;
65049;SDS011;52090;51.224;-2.328;2023-02-15T23:11:51;9.68;;;7.22;;
65049;SDS011;52090;51.224;-2.328;2023-02-15T23:15:34;10.85;;;6.32;;
65049;SDS011;52090;51.224;-2.328;2023-02-15T23:19:16;11.88;;;7.00;;
65049;SDS011;52090;51.224;-2.328;2023-02-15T23:22:58;10.65;;;6.55;;
65049;SDS011;52090;51.224;-2.328;2023-02-15T23:26:40;9.02;;;6.22;;
65049;SDS011;52090;51.224;-2.328;2023-02-15T23:30:22;9.48;;;5.97;;
65049;SDS011;52090;51.224;-2.328;2023-02-15T23:34:18;9.98;;;5.97;;
65049;SDS011;52090;51.224;-2.328;2023-02-15T23:38:14;10.80;;;6.10;;
65049;SDS011;52090;51.224;-2.328;2023-02-15T23:42:28;9.70;;;6.22;;
65049;SDS011;52090;51.224;-2.328;2023-02-15T23:46:46;8.45;;;5.68;;
65049;SDS011;52090;51.224;-2.328;2023-02-15T23:50:23;8.23;;;5.93;;
65049;SDS011;52090;51.224;-2.328;2023-02-15T23:54:17;8.15;;;5.97;;
65049;SDS011;52090;51.224;-2.328;2023-02-15T23:58:00;8.47;;;6.03;;
